createdAt,value
2022-10-05T00:00:57.934Z,99.90
2022-10-05T00:03:26.814Z,99.90
2022-10-05T00:05:55.213Z,99.90
2022-10-05T00:08:26.412Z,99.90
2022-10-05T00:10:55.132Z,99.90
2022-10-05T00:13:25.738Z,99.90
2022-10-05T00:15:59.271Z,99.90
2022-10-05T00:18:28.253Z,99.90
2022-10-05T00:20:56.453Z,99.90
2022-10-05T00:23:31.051Z,99.90
2022-10-05T00:26:07.773Z,99.90
2022-10-05T00:28:35.816Z,99.90
2022-10-05T00:31:16.039Z,99.90
2022-10-05T00:33:44.159Z,99.90
2022-10-05T00:36:12.353Z,99.90
2022-10-05T00:38:41.082Z,99.90
2022-10-05T00:41:15.639Z,99.90
2022-10-05T00:44:09.523Z,99.90
2022-10-05T00:46:52.568Z,99.90
2022-10-05T00:49:34.111Z,99.90
2022-10-05T00:52:20.070Z,99.90
2022-10-05T00:54:55.336Z,99.90
2022-10-05T00:57:38.944Z,99.90
2022-10-05T01:00:13.012Z,99.90
2022-10-05T01:02:54.508Z,99.90
2022-10-05T01:05:40.851Z,99.90
2022-10-05T01:08:22.817Z,99.90
2022-10-05T01:10:59.382Z,99.90
2022-10-05T01:13:33.837Z,99.90
2022-10-05T01:16:09.747Z,99.90
2022-10-05T01:18:45.337Z,99.90
2022-10-05T01:21:19.865Z,99.90
2022-10-05T01:24:17.943Z,99.90
2022-10-05T01:27:12.461Z,99.90
2022-10-05T01:29:48.902Z,99.90
2022-10-05T01:32:26.163Z,99.90
2022-10-05T01:35:04.394Z,99.90
2022-10-05T01:37:42.050Z,99.90
2022-10-05T01:40:18.841Z,99.90
2022-10-05T01:42:57.879Z,99.90
2022-10-05T01:45:36.143Z,99.90
2022-10-05T01:48:11.529Z,99.90
2022-10-05T01:50:53.481Z,99.90
2022-10-05T01:53:30.977Z,99.90
2022-10-05T01:56:07.576Z,99.90
2022-10-05T01:58:45.523Z,99.90
2022-10-05T02:01:22.696Z,99.90
2022-10-05T02:03:58.190Z,99.90
2022-10-05T02:06:31.131Z,99.90
2022-10-05T02:09:05.630Z,99.90
2022-10-05T02:11:34.911Z,99.90
2022-10-05T02:14:08.979Z,99.90
2022-10-05T02:16:41.583Z,99.90
2022-10-05T02:19:15.723Z,99.90
2022-10-05T02:21:49.339Z,99.90
2022-10-05T02:24:23.689Z,99.90
2022-10-05T02:26:54.291Z,99.90
2022-10-05T02:29:25.781Z,99.90
2022-10-05T02:32:01.668Z,99.90
2022-10-05T02:34:32.214Z,99.90
2022-10-05T02:37:22.917Z,99.90
2022-10-05T02:40:10.779Z,99.90
2022-10-05T02:42:52.362Z,99.90
2022-10-05T02:45:32.967Z,99.90
2022-10-05T02:48:12.126Z,99.90
2022-10-05T02:50:50.502Z,99.90
2022-10-05T02:53:26.428Z,99.90
2022-10-05T02:56:05.055Z,99.90
2022-10-05T02:58:41.103Z,99.90
2022-10-05T03:01:16.158Z,99.90
2022-10-05T03:03:53.135Z,99.90
2022-10-05T03:06:26.133Z,99.90
2022-10-05T03:09:02.462Z,99.90
2022-10-05T03:11:42.052Z,99.90
2022-10-05T03:14:15.478Z,99.90
2022-10-05T03:17:00.350Z,99.90
2022-10-05T03:19:56.642Z,99.90
2022-10-05T03:22:37.170Z,99.90
2022-10-05T03:25:29.714Z,99.90
2022-10-05T03:28:04.183Z,99.90
2022-10-05T03:30:38.770Z,99.90
2022-10-05T03:33:15.989Z,99.90
2022-10-05T03:35:54.161Z,99.90
2022-10-05T03:38:32.431Z,99.90
2022-10-05T03:41:09.775Z,99.90
2022-10-05T03:43:54.984Z,99.90
2022-10-05T03:46:31.466Z,99.90
2022-10-05T03:49:08.084Z,99.90
2022-10-05T03:51:41.845Z,99.90
2022-10-05T03:54:16.354Z,99.90
2022-10-05T03:56:49.583Z,99.90
2022-10-05T03:59:21.741Z,99.90
2022-10-05T04:01:54.615Z,99.90
2022-10-05T04:04:29.649Z,99.90
2022-10-05T04:07:01.131Z,99.90
2022-10-05T04:09:37.581Z,99.90
2022-10-05T04:12:13.420Z,99.90
2022-10-05T04:14:48.676Z,99.90
2022-10-05T04:17:19.321Z,99.90
2022-10-05T04:19:57.546Z,99.90
2022-10-05T04:22:32.170Z,99.90
2022-10-05T04:25:06.020Z,99.90
2022-10-05T04:27:39.846Z,99.90
2022-10-05T04:30:13.279Z,99.90
2022-10-05T04:32:44.774Z,99.90
2022-10-05T04:35:51.926Z,99.90
2022-10-05T04:38:33.025Z,99.90
2022-10-05T04:41:14.472Z,99.90
2022-10-05T04:43:58.012Z,99.90
2022-10-05T04:46:40.080Z,99.90
2022-10-05T04:49:34.135Z,99.90
2022-10-05T04:52:13.992Z,99.90
2022-10-05T04:54:56.300Z,99.90
2022-10-05T04:57:32.691Z,99.90
2022-10-05T05:00:10.201Z,99.90
2022-10-05T05:02:52.894Z,99.90
2022-10-05T05:05:35.859Z,99.90
2022-10-05T05:08:22.726Z,99.90
2022-10-05T05:11:15.284Z,99.90
2022-10-05T05:14:15.041Z,99.90
2022-10-05T05:16:45.816Z,99.90
2022-10-05T05:19:37.549Z,99.90
2022-10-05T05:22:11.169Z,99.90
2022-10-05T05:24:51.903Z,99.90
2022-10-05T05:27:41.522Z,99.90
2022-10-05T05:30:21.320Z,99.90
2022-10-05T05:33:09.664Z,99.90
2022-10-05T05:35:59.886Z,99.90
2022-10-05T05:38:34.517Z,99.90
2022-10-05T05:41:11.353Z,99.90
2022-10-05T05:43:58.022Z,99.90
2022-10-05T05:46:45.010Z,99.90
2022-10-05T05:49:23.282Z,99.90
2022-10-05T05:51:57.124Z,99.90
2022-10-05T05:54:31.241Z,99.90
2022-10-05T05:57:10.895Z,99.90
2022-10-05T05:59:54.435Z,99.90
2022-10-05T06:02:28.149Z,99.90
2022-10-05T06:05:02.056Z,99.90
2022-10-05T06:07:32.420Z,99.90
2022-10-05T06:10:06.757Z,99.90
2022-10-05T06:12:45.664Z,99.90
2022-10-05T06:15:24.266Z,99.90
2022-10-05T06:17:56.958Z,99.90
2022-10-05T06:20:29.451Z,99.90
2022-10-05T06:23:04.181Z,99.90
2022-10-05T06:25:39.747Z,99.90
2022-10-05T06:28:11.174Z,99.90
2022-10-05T06:30:52.727Z,99.90
2022-10-05T06:33:36.706Z,99.90
2022-10-05T06:36:18.679Z,99.90
2022-10-05T06:39:19.442Z,99.90
2022-10-05T06:42:01.907Z,99.90
2022-10-05T06:44:57.157Z,99.90
2022-10-05T06:47:39.107Z,99.90
2022-10-05T06:50:31.132Z,99.90
2022-10-05T06:53:30.201Z,99.90
2022-10-05T06:56:04.506Z,99.90
2022-10-05T06:58:56.031Z,99.90
2022-10-05T07:01:51.449Z,99.50
2022-10-05T07:04:38.109Z,99.10
2022-10-05T07:07:15.781Z,97.40
2022-10-05T07:09:55.576Z,96.80
2022-10-05T07:12:51.659Z,94.70
2022-10-05T07:15:37.774Z,94.50
2022-10-05T07:18:19.565Z,93.70
2022-10-05T07:21:00.153Z,92.40
2022-10-05T07:23:44.171Z,91.40
2022-10-05T07:26:19.101Z,90.30
2022-10-05T07:28:51.888Z,90.00
2022-10-05T07:31:30.423Z,88.80
2022-10-05T07:34:06.692Z,88.50
2022-10-05T07:37:01.269Z,87.40
2022-10-05T07:39:59.204Z,86.70
2022-10-05T07:42:46.056Z,86.40
2022-10-05T07:45:27.273Z,85.40
2022-10-05T07:47:58.444Z,84.90
2022-10-05T07:50:31.141Z,84.30
2022-10-05T07:53:07.322Z,83.10
2022-10-05T07:55:41.677Z,82.80
2022-10-05T07:58:16.966Z,82.40
2022-10-05T08:01:11.260Z,81.70
2022-10-05T08:03:52.237Z,82.10
2022-10-05T08:06:40.960Z,80.50
2022-10-05T08:09:23.670Z,80.10
2022-10-05T08:11:58.680Z,79.10
2022-10-05T08:14:35.547Z,78.60
2022-10-05T08:17:11.809Z,77.70
2022-10-05T08:19:48.029Z,77.40
2022-10-05T08:22:24.909Z,76.90
2022-10-05T08:25:00.125Z,76.50
2022-10-05T08:27:36.433Z,76.00
2022-10-05T08:30:07.772Z,75.70
2022-10-05T08:32:40.359Z,75.40
2022-10-05T08:35:24.177Z,73.80
2022-10-05T08:37:52.547Z,75.30
2022-10-05T08:40:51.568Z,73.90
2022-10-05T08:43:36.742Z,72.30
2022-10-05T08:46:21.361Z,71.80
2022-10-05T08:48:59.773Z,71.10
2022-10-05T08:52:19.896Z,70.50
2022-10-05T08:55:20.986Z,70.40
2022-10-05T08:58:04.771Z,69.70
2022-10-05T09:00:41.148Z,68.70
2022-10-05T09:03:28.185Z,68.50
2022-10-05T09:06:23.431Z,68.30
2022-10-05T09:09:21.339Z,67.30
2022-10-05T09:12:08.349Z,67.30
2022-10-05T09:15:13.720Z,67.90
2022-10-05T09:18:28.271Z,67.10
2022-10-05T09:20:59.849Z,66.40
2022-10-05T09:23:39.462Z,66.70
2022-10-05T09:26:10.605Z,66.50
2022-10-05T09:28:51.638Z,65.70
2022-10-05T09:31:43.091Z,66.80
2022-10-05T09:34:38.109Z,65.50
2022-10-05T09:37:51.046Z,65.50
2022-10-05T09:40:56.628Z,65.00
2022-10-05T09:43:41.187Z,64.50
2022-10-05T09:46:41.431Z,64.70
2022-10-05T09:49:48.134Z,64.00
2022-10-05T09:52:42.870Z,64.10
2022-10-05T09:55:35.826Z,63.80
2022-10-05T09:58:40.719Z,64.40
2022-10-05T10:01:34.911Z,64.40
2022-10-05T10:04:35.994Z,64.20
2022-10-05T10:07:46.324Z,64.60
2022-10-05T10:10:32.213Z,64.50
2022-10-05T10:13:24.084Z,63.90
2022-10-05T10:16:14.535Z,64.20
2022-10-05T10:19:28.628Z,63.70
2022-10-05T10:22:43.102Z,63.40
2022-10-05T10:25:34.713Z,63.20
2022-10-05T10:28:28.053Z,63.10
2022-10-05T10:31:38.811Z,62.60
2022-10-05T10:34:31.332Z,62.40
2022-10-05T10:37:23.754Z,62.40
2022-10-05T10:40:10.101Z,61.70
2022-10-05T10:42:46.501Z,61.00
2022-10-05T10:45:25.213Z,61.00
2022-10-05T10:48:00.953Z,61.20
2022-10-05T10:51:08.071Z,60.70
2022-10-05T10:54:25.356Z,60.60
2022-10-05T10:57:04.355Z,60.70
2022-10-05T11:00:15.634Z,61.00
2022-10-05T11:03:25.439Z,61.30
2022-10-05T11:06:26.666Z,60.40
2022-10-05T11:09:18.054Z,60.10
2022-10-05T11:12:12.741Z,60.60
2022-10-05T11:14:57.023Z,59.60
2022-10-05T11:17:33.442Z,59.80
2022-10-05T11:20:38.061Z,59.60
2022-10-05T11:23:39.078Z,59.70
2022-10-05T11:26:32.918Z,59.40
2022-10-05T11:29:26.457Z,59.10
2022-10-05T11:32:21.827Z,59.70
2022-10-05T11:35:20.961Z,59.50
2022-10-05T11:38:27.340Z,58.90
2022-10-05T11:41:30.903Z,59.50
2022-10-05T11:44:34.753Z,59.50
2022-10-05T11:47:11.152Z,58.80
2022-10-05T11:49:43.693Z,59.30
2022-10-05T11:52:18.460Z,59.30
2022-10-05T11:55:19.212Z,59.60
2022-10-05T11:57:52.806Z,59.10
2022-10-05T12:00:25.683Z,58.90
2022-10-05T12:03:27.413Z,58.70
2022-10-05T12:06:13.803Z,58.50
2022-10-05T12:08:51.861Z,58.60
2022-10-05T12:11:43.898Z,59.10
2022-10-05T12:14:24.193Z,58.20
2022-10-05T12:17:00.432Z,58.50
2022-10-05T12:19:33.831Z,58.70
2022-10-05T12:22:05.419Z,58.10
2022-10-05T12:25:01.469Z,58.10
2022-10-05T12:27:34.302Z,57.80
2022-10-05T12:30:09.707Z,57.70
2022-10-05T12:32:45.671Z,57.90
2022-10-05T12:35:30.055Z,57.60
2022-10-05T12:38:18.980Z,57.50
2022-10-05T12:40:53.194Z,57.40
2022-10-05T12:43:28.536Z,57.60
2022-10-05T12:46:07.595Z,57.70
2022-10-05T12:48:49.216Z,57.40
2022-10-05T12:51:23.390Z,57.50
2022-10-05T12:53:59.175Z,57.80
2022-10-05T12:56:37.167Z,57.30
2022-10-05T12:59:14.323Z,57.20
2022-10-05T13:01:50.208Z,57.40
2022-10-05T13:04:35.958Z,57.00
2022-10-05T13:07:34.227Z,57.40
2022-10-05T13:10:13.382Z,57.80
2022-10-05T13:12:52.320Z,58.00
2022-10-05T13:15:29.727Z,57.90
2022-10-05T13:18:12.033Z,58.60
2022-10-05T13:20:47.908Z,58.30
2022-10-05T13:23:24.968Z,58.50
2022-10-05T13:25:58.525Z,58.10
2022-10-05T13:28:34.631Z,58.10
2022-10-05T13:31:12.381Z,57.80
2022-10-05T13:33:55.465Z,58.50
2022-10-05T13:36:34.617Z,58.90
2022-10-05T13:39:12.182Z,58.50
2022-10-05T13:41:51.173Z,58.80
2022-10-05T13:44:23.966Z,58.50
2022-10-05T13:46:56.251Z,58.50
2022-10-05T13:49:29.556Z,58.40
2022-10-05T13:52:10.229Z,58.00
2022-10-05T13:54:47.286Z,58.20
2022-10-05T13:57:29.959Z,58.00
2022-10-05T14:00:03.537Z,57.90
2022-10-05T14:02:43.296Z,58.00
2022-10-05T14:05:18.530Z,58.10
2022-10-05T14:07:53.441Z,58.40
2022-10-05T14:10:35.586Z,58.60
2022-10-05T14:13:23.612Z,58.10
2022-10-05T14:16:04.425Z,57.90
2022-10-05T14:18:34.444Z,57.90
2022-10-05T14:21:05.021Z,57.90
2022-10-05T14:23:38.483Z,58.30
2022-10-05T14:26:19.951Z,58.00
2022-10-05T14:29:00.038Z,57.90
2022-10-05T14:31:32.110Z,57.70
2022-10-05T14:34:26.860Z,57.80
2022-10-05T14:36:59.990Z,57.50
2022-10-05T14:39:34.302Z,57.40
2022-10-05T14:42:15.697Z,58.00
2022-10-05T14:44:43.983Z,57.50
2022-10-05T14:47:23.789Z,57.90
2022-10-05T14:50:10.725Z,55.90
2022-10-05T14:52:41.142Z,54.60
2022-10-05T14:55:38.486Z,54.30
2022-10-05T14:58:29.023Z,53.90
2022-10-05T15:01:03.584Z,55.10
2022-10-05T15:03:45.660Z,54.80
2022-10-05T15:06:22.360Z,55.60
2022-10-05T15:09:16.415Z,56.70
2022-10-05T15:11:50.372Z,57.60
2022-10-05T15:14:22.626Z,58.20
2022-10-05T15:16:53.982Z,58.60
2022-10-05T15:19:28.364Z,59.20
2022-10-05T15:22:14.231Z,59.40
2022-10-05T15:24:47.241Z,59.10
2022-10-05T15:27:29.523Z,59.40
2022-10-05T15:30:05.440Z,59.50
2022-10-05T15:32:42.112Z,59.50
2022-10-05T15:35:38.310Z,59.60
2022-10-05T15:38:28.147Z,59.70
2022-10-05T15:41:08.404Z,59.90
2022-10-05T15:43:50.248Z,60.80
2022-10-05T15:46:34.306Z,60.40
2022-10-05T15:49:14.618Z,60.70
2022-10-05T15:51:56.464Z,60.80
2022-10-05T15:54:52.537Z,61.10
2022-10-05T15:57:26.484Z,61.10
2022-10-05T16:00:05.087Z,61.60
2022-10-05T16:02:41.556Z,61.60
2022-10-05T16:05:46.666Z,61.70
2022-10-05T16:08:50.763Z,61.90
2022-10-05T16:11:31.042Z,62.30
2022-10-05T16:14:11.048Z,62.60
2022-10-05T16:16:47.254Z,63.10
2022-10-05T16:19:23.142Z,63.40
2022-10-05T16:21:57.999Z,63.70
2022-10-05T16:24:51.626Z,63.90
2022-10-05T16:27:31.701Z,64.70
2022-10-05T16:30:06.064Z,65.20
2022-10-05T16:32:38.984Z,65.90
2022-10-05T16:35:18.509Z,66.00
2022-10-05T16:37:54.290Z,66.80
2022-10-05T16:40:32.012Z,66.90
2022-10-05T16:43:10.690Z,67.40
2022-10-05T16:45:53.055Z,67.50
2022-10-05T16:48:27.271Z,68.60
2022-10-05T16:51:17.840Z,68.70
2022-10-05T16:53:50.629Z,69.30
2022-10-05T16:56:21.287Z,69.50
2022-10-05T16:59:04.180Z,70.60
2022-10-05T17:01:44.562Z,70.50
2022-10-05T17:04:26.651Z,71.00
2022-10-05T17:07:25.360Z,71.50
2022-10-05T17:10:22.927Z,71.70
2022-10-05T17:13:03.463Z,71.70
2022-10-05T17:15:38.862Z,72.80
2022-10-05T17:18:27.998Z,73.30
2022-10-05T17:21:13.626Z,74.00
2022-10-05T17:23:54.726Z,74.20
2022-10-05T17:26:48.158Z,75.20
2022-10-05T17:29:26.513Z,75.80
2022-10-05T17:32:12.758Z,76.10
2022-10-05T17:35:02.987Z,76.90
2022-10-05T17:37:38.262Z,77.30
2022-10-05T17:40:32.948Z,77.50
2022-10-05T17:43:02.401Z,78.40
2022-10-05T17:45:54.157Z,78.70
2022-10-05T17:48:41.945Z,79.80
2022-10-05T17:51:59.347Z,79.40
2022-10-05T17:54:57.603Z,80.70
2022-10-05T17:57:28.022Z,80.80
2022-10-05T18:00:01.853Z,81.10
2022-10-05T18:02:43.873Z,81.90
2022-10-05T18:05:27.571Z,82.00
2022-10-05T18:08:30.373Z,82.10
2022-10-05T18:11:37.725Z,83.00
2022-10-05T18:14:20.371Z,83.70
2022-10-05T18:17:02.570Z,84.00
2022-10-05T18:19:33.245Z,84.70
2022-10-05T18:22:14.916Z,84.40
2022-10-05T18:24:56.059Z,84.70
2022-10-05T18:27:50.402Z,85.00
2022-10-05T18:30:22.499Z,85.80
2022-10-05T18:33:27.128Z,86.20
2022-10-05T18:36:10.330Z,86.20
2022-10-05T18:38:47.514Z,86.70
2022-10-05T18:41:29.240Z,86.70
2022-10-05T18:44:08.974Z,87.10
2022-10-05T18:46:44.737Z,87.30
2022-10-05T18:49:31.436Z,87.80
2022-10-05T18:52:08.110Z,87.50
2022-10-05T18:54:54.171Z,88.20
2022-10-05T18:57:44.997Z,88.80
2022-10-05T19:00:18.038Z,88.50
2022-10-05T19:02:52.302Z,88.90
2022-10-05T19:05:47.511Z,89.00
2022-10-05T19:08:28.144Z,89.00
2022-10-05T19:11:03.194Z,88.80
2022-10-05T19:13:42.700Z,89.10
2022-10-05T19:16:44.531Z,89.00
2022-10-05T19:19:36.664Z,89.40
2022-10-05T19:22:15.881Z,89.00
2022-10-05T19:24:54.720Z,88.90
2022-10-05T19:27:32.967Z,88.90
2022-10-05T19:30:19.906Z,90.10
2022-10-05T19:33:18.264Z,90.00
2022-10-05T19:35:59.145Z,90.00
2022-10-05T19:38:35.712Z,89.60
2022-10-05T19:41:13.409Z,90.40
2022-10-05T19:44:02.809Z,90.60
2022-10-05T19:46:51.295Z,91.10
2022-10-05T19:49:48.907Z,91.00
2022-10-05T19:52:23.555Z,91.10
2022-10-05T19:55:04.733Z,90.70
2022-10-05T19:57:33.448Z,90.90
2022-10-05T20:00:01.818Z,91.40
2022-10-05T20:02:37.435Z,91.30
2022-10-05T20:05:10.245Z,91.30
2022-10-05T20:07:39.041Z,91.50
2022-10-05T20:10:29.109Z,91.70
2022-10-05T20:12:59.495Z,92.00
2022-10-05T20:15:46.725Z,92.60
2022-10-05T20:18:51.490Z,91.90
2022-10-05T20:21:48.149Z,92.50
2022-10-05T20:24:18.179Z,93.30
2022-10-05T20:27:05.274Z,93.40
2022-10-05T20:29:36.356Z,93.30
2022-10-05T20:32:08.301Z,94.30
2022-10-05T20:34:37.452Z,94.00
2022-10-05T20:37:06.879Z,94.30
2022-10-05T20:39:34.901Z,94.90
2022-10-05T20:42:02.940Z,95.00
2022-10-05T20:44:30.997Z,95.40
2022-10-05T20:47:01.226Z,95.90
2022-10-05T20:49:31.080Z,96.40
2022-10-05T20:51:59.683Z,96.80
2022-10-05T20:54:29.751Z,96.90
2022-10-05T20:56:58.195Z,97.30
2022-10-05T20:59:26.988Z,97.70
2022-10-05T21:01:55.629Z,98.20
2022-10-05T21:04:25.729Z,98.50
2022-10-05T21:06:54.319Z,99.00
2022-10-05T21:09:22.693Z,99.70
2022-10-05T21:11:52.892Z,99.90
2022-10-05T21:14:21.094Z,99.90
2022-10-05T21:16:52.728Z,99.90
2022-10-05T21:19:20.708Z,99.90
2022-10-05T21:21:48.972Z,99.90
2022-10-05T21:24:17.479Z,99.90
2022-10-05T21:26:46.046Z,99.90
2022-10-05T21:29:15.448Z,99.90
2022-10-05T21:31:43.592Z,99.90
2022-10-05T21:34:11.770Z,99.90
2022-10-05T21:36:39.756Z,99.90
2022-10-05T21:39:07.812Z,99.90
2022-10-05T21:41:35.903Z,99.90
2022-10-05T21:44:04.089Z,99.90
2022-10-05T21:46:36.516Z,99.90
2022-10-05T21:49:06.046Z,99.90
2022-10-05T21:51:37.847Z,99.90
2022-10-05T21:54:12.237Z,99.90
2022-10-05T21:56:47.588Z,99.90
2022-10-05T21:59:19.432Z,99.90
2022-10-05T22:01:56.478Z,99.90
2022-10-05T22:04:24.760Z,99.90
2022-10-05T22:06:52.697Z,99.90
2022-10-05T22:09:23.035Z,99.90
2022-10-05T22:11:51.276Z,99.90
2022-10-05T22:14:21.404Z,99.90
2022-10-05T22:16:50.851Z,99.90
2022-10-05T22:19:20.985Z,99.90
2022-10-05T22:21:49.072Z,99.90
2022-10-05T22:24:17.043Z,99.90
2022-10-05T22:26:46.998Z,99.90
2022-10-05T22:29:18.047Z,99.90
2022-10-05T22:31:48.720Z,99.90
2022-10-05T22:34:19.013Z,99.90
2022-10-05T22:36:47.347Z,99.90
2022-10-05T22:39:15.533Z,99.90
2022-10-05T22:41:43.585Z,99.90
2022-10-05T22:44:11.761Z,99.90
2022-10-05T22:46:39.812Z,99.90
2022-10-05T22:49:07.821Z,99.90
2022-10-05T22:51:37.186Z,99.90
2022-10-05T22:54:07.508Z,99.90
2022-10-05T22:56:35.683Z,99.90
2022-10-05T22:59:05.833Z,99.90
2022-10-05T23:01:33.946Z,99.90
2022-10-05T23:04:02.076Z,99.90
2022-10-05T23:06:32.731Z,99.90
2022-10-05T23:09:02.109Z,99.90
